sensor_id;sensor_type;location;lat;lon;timestamp;temperature;humidity
21207;DHT22;10761;48.532;8.026;2023-04-24T00:00:23;11.90;20.20
21207;DHT22;10761;48.532;8.026;2023-04-24T00:02:49;11.90;99.90
21207;DHT22;10761;48.532;8.026;2023-04-24T00:05:16;11.90;99.90
21207;DHT22;10761;48.532;8.026;2023-04-24T00:07:43;11.90;99.90
21207;DHT22;10761;48.532;8.026;2023-04-24T00:10:09;11.90;99.90
21207;DHT22;10761;48.532;8.026;2023-04-24T00:12:35;11.90;1.00
21207;DHT22;10761;48.532;8.026;2023-04-24T00:15:01;11.90;1.00
21207;DHT22;10761;48.532;8.026;2023-04-24T00:17:27;11.90;99.90
21207;DHT22;10761;48.532;8.026;2023-04-24T00:19:52;11.90;99.90
21207;DHT22;10761;48.532;8.026;2023-04-24T00:22:24;12.00;21.80
21207;DHT22;10761;48.532;8.026;2023-04-24T00:24:50;12.00;1.00
21207;DHT22;10761;48.532;8.026;2023-04-24T00:27:16;12.00;1.00
21207;DHT22;10761;48.532;8.026;2023-04-24T00:29:41;12.00;80.00
21207;DHT22;10761;48.532;8.026;2023-04-24T00:32:07;12.00;99.90
21207;DHT22;10761;48.532;8.026;2023-04-24T00:34:32;11.90;99.90
21207;DHT22;10761;48.532;8.026;2023-04-24T00:36:58;12.00;99.90
21207;DHT22;10761;48.532;8.026;2023-04-24T00:39:23;12.00;1.00
21207;DHT22;10761;48.532;8.026;2023-04-24T00:41:49;12.00;1.00
21207;DHT22;10761;48.532;8.026;2023-04-24T00:44:16;11.90;1.00
21207;DHT22;10761;48.532;8.026;2023-04-24T00:46:42;11.80;99.90
21207;DHT22;10761;48.532;8.026;2023-04-24T00:49:08;11.70;99.90
21207;DHT22;10761;48.532;8.026;2023-04-24T00:51:33;11.70;1.00
21207;DHT22;10761;48.532;8.026;2023-04-24T00:54:00;11.70;1.00
21207;DHT22;10761;48.532;8.026;2023-04-24T00:56:26;11.70;1.00
21207;DHT22;10761;48.532;8.026;2023-04-24T00:58:52;11.60;1.00
21207;DHT22;10761;48.532;8.026;2023-04-24T01:01:21;11.60;1.00
21207;DHT22;10761;48.532;8.026;2023-04-24T01:03:49;11.50;1.00
21207;DHT22;10761;48.532;8.026;2023-04-24T01:06:16;11.60;1.00
21207;DHT22;10761;48.532;8.026;2023-04-24T01:08:43;11.60;1.00
21207;DHT22;10761;48.532;8.026;2023-04-24T01:11:10;11.70;1.00
21207;DHT22;10761;48.532;8.026;2023-04-24T01:13:36;11.70;1.00
21207;DHT22;10761;48.532;8.026;2023-04-24T01:16:02;11.70;1.00
21207;DHT22;10761;48.532;8.026;2023-04-24T01:18:28;11.70;1.00
21207;DHT22;10761;48.532;8.026;2023-04-24T01:20:57;11.70;1.00
21207;DHT22;10761;48.532;8.026;2023-04-24T01:23:23;11.60;1.00
21207;DHT22;10761;48.532;8.026;2023-04-24T01:25:49;11.60;1.00
21207;DHT22;10761;48.532;8.026;2023-04-24T01:28:16;11.50;1.00
21207;DHT22;10761;48.532;8.026;2023-04-24T01:30:41;11.50;1.00
21207;DHT22;10761;48.532;8.026;2023-04-24T01:33:07;11.40;1.00
21207;DHT22;10761;48.532;8.026;2023-04-24T01:35:33;11.40;1.00
21207;DHT22;10761;48.532;8.026;2023-04-24T01:37:59;11.40;1.00
21207;DHT22;10761;48.532;8.026;2023-04-24T01:40:25;11.40;1.00
21207;DHT22;10761;48.532;8.026;2023-04-24T01:42:51;11.30;1.00
21207;DHT22;10761;48.532;8.026;2023-04-24T01:45:17;11.30;1.00
21207;DHT22;10761;48.532;8.026;2023-04-24T01:47:43;11.30;1.00
21207;DHT22;10761;48.532;8.026;2023-04-24T01:50:09;11.40;1.00
21207;DHT22;10761;48.532;8.026;2023-04-24T01:52:35;11.30;21.70
21207;DHT22;10761;48.532;8.026;2023-04-24T01:55:04;11.30;99.90
21207;DHT22;10761;48.532;8.026;2023-04-24T01:57:31;11.20;99.90
21207;DHT22;10761;48.532;8.026;2023-04-24T01:59:57;11.20;99.90
21207;DHT22;10761;48.532;8.026;2023-04-24T02:02:23;11.10;99.90
21207;DHT22;10761;48.532;8.026;2023-04-24T02:04:56;11.10;99.90
21207;DHT22;10761;48.532;8.026;2023-04-24T02:07:22;11.00;99.90
21207;DHT22;10761;48.532;8.026;2023-04-24T02:09:47;11.00;99.90
21207;DHT22;10761;48.532;8.026;2023-04-24T02:12:14;11.00;99.90
21207;DHT22;10761;48.532;8.026;2023-04-24T02:14:40;11.00;99.90
21207;DHT22;10761;48.532;8.026;2023-04-24T02:17:05;11.00;99.90
21207;DHT22;10761;48.532;8.026;2023-04-24T02:19:31;10.90;99.90
21207;DHT22;10761;48.532;8.026;2023-04-24T02:21:57;10.90;99.90
21207;DHT22;10761;48.532;8.026;2023-04-24T02:24:23;10.90;99.90
21207;DHT22;10761;48.532;8.026;2023-04-24T02:26:48;10.90;99.90
21207;DHT22;10761;48.532;8.026;2023-04-24T02:29:14;10.90;93.80
21207;DHT22;10761;48.532;8.026;2023-04-24T02:31:40;10.80;76.90
21207;DHT22;10761;48.532;8.026;2023-04-24T02:34:06;10.90;58.20
21207;DHT22;10761;48.532;8.026;2023-04-24T02:36:31;10.90;15.40
21207;DHT22;10761;48.532;8.026;2023-04-24T02:38:57;11.00;1.00
21207;DHT22;10761;48.532;8.026;2023-04-24T02:41:23;11.00;1.00
21207;DHT22;10761;48.532;8.026;2023-04-24T02:43:48;11.10;1.00
21207;DHT22;10761;48.532;8.026;2023-04-24T02:46:14;11.10;1.00
21207;DHT22;10761;48.532;8.026;2023-04-24T02:48:39;11.10;1.00
21207;DHT22;10761;48.532;8.026;2023-04-24T02:51:05;11.20;1.00
21207;DHT22;10761;48.532;8.026;2023-04-24T02:53:32;11.20;1.00
21207;DHT22;10761;48.532;8.026;2023-04-24T02:55:57;11.20;1.00
21207;DHT22;10761;48.532;8.026;2023-04-24T02:58:23;11.20;1.00
21207;DHT22;10761;48.532;8.026;2023-04-24T03:00:49;11.20;1.00
21207;DHT22;10761;48.532;8.026;2023-04-24T03:03:18;11.20;1.00
21207;DHT22;10761;48.532;8.026;2023-04-24T03:05:43;11.10;1.00
21207;DHT22;10761;48.532;8.026;2023-04-24T03:08:09;11.10;45.90
21207;DHT22;10761;48.532;8.026;2023-04-24T03:10:35;11.00;90.90
21207;DHT22;10761;48.532;8.026;2023-04-24T03:13:01;10.90;99.90
21207;DHT22;10761;48.532;8.026;2023-04-24T03:15:26;10.90;99.90
21207;DHT22;10761;48.532;8.026;2023-04-24T03:17:52;10.70;99.90
21207;DHT22;10761;48.532;8.026;2023-04-24T03:20:18;10.60;99.90
21207;DHT22;10761;48.532;8.026;2023-04-24T03:22:43;10.50;99.90
21207;DHT22;10761;48.532;8.026;2023-04-24T03:25:09;10.50;99.90
21207;DHT22;10761;48.532;8.026;2023-04-24T03:27:35;10.40;99.90
21207;DHT22;10761;48.532;8.026;2023-04-24T03:30:00;10.40;99.90
21207;DHT22;10761;48.532;8.026;2023-04-24T03:32:27;10.30;99.90
21207;DHT22;10761;48.532;8.026;2023-04-24T03:34:52;10.30;99.90
21207;DHT22;10761;48.532;8.026;2023-04-24T03:37:18;10.30;99.90
21207;DHT22;10761;48.532;8.026;2023-04-24T03:39:44;10.30;99.90
21207;DHT22;10761;48.532;8.026;2023-04-24T03:42:10;10.20;99.90
21207;DHT22;10761;48.532;8.026;2023-04-24T03:44:36;10.20;99.90
21207;DHT22;10761;48.532;8.026;2023-04-24T03:47:01;10.20;99.90
21207;DHT22;10761;48.532;8.026;2023-04-24T03:49:27;10.10;99.90
21207;DHT22;10761;48.532;8.026;2023-04-24T03:51:53;10.10;99.90
21207;DHT22;10761;48.532;8.026;2023-04-24T03:54:19;10.10;99.90
21207;DHT22;10761;48.532;8.026;2023-04-24T03:56:45;10.00;99.90
21207;DHT22;10761;48.532;8.026;2023-04-24T03:59:11;10.00;99.90
21207;DHT22;10761;48.532;8.026;2023-04-24T04:01:37;10.00;99.90
21207;DHT22;10761;48.532;8.026;2023-04-24T04:04:03;10.00;99.90
21207;DHT22;10761;48.532;8.026;2023-04-24T04:06:29;10.00;99.90
21207;DHT22;10761;48.532;8.026;2023-04-24T04:08:56;10.00;99.90
21207;DHT22;10761;48.532;8.026;2023-04-24T04:11:22;10.00;99.90
21207;DHT22;10761;48.532;8.026;2023-04-24T04:13:48;10.00;99.90
21207;DHT22;10761;48.532;8.026;2023-04-24T04:16:14;10.00;99.90
21207;DHT22;10761;48.532;8.026;2023-04-24T04:18:42;10.00;99.90
21207;DHT22;10761;48.532;8.026;2023-04-24T04:21:07;9.90;99.90
21207;DHT22;10761;48.532;8.026;2023-04-24T04:23:33;9.90;99.90
21207;DHT22;10761;48.532;8.026;2023-04-24T04:25:59;9.90;99.90
21207;DHT22;10761;48.532;8.026;2023-04-24T04:28:25;9.90;99.90
21207;DHT22;10761;48.532;8.026;2023-04-24T04:30:50;9.90;99.90
21207;DHT22;10761;48.532;8.026;2023-04-24T04:33:20;9.90;99.90
21207;DHT22;10761;48.532;8.026;2023-04-24T04:35:46;9.90;99.90
21207;DHT22;10761;48.532;8.026;2023-04-24T04:38:14;9.90;99.90
21207;DHT22;10761;48.532;8.026;2023-04-24T04:40:40;9.80;99.90
21207;DHT22;10761;48.532;8.026;2023-04-24T04:43:06;9.80;99.90
21207;DHT22;10761;48.532;8.026;2023-04-24T04:45:32;9.80;99.90
21207;DHT22;10761;48.532;8.026;2023-04-24T04:47:59;9.80;99.90
21207;DHT22;10761;48.532;8.026;2023-04-24T04:50:26;9.80;99.90
21207;DHT22;10761;48.532;8.026;2023-04-24T04:52:52;9.90;99.90
21207;DHT22;10761;48.532;8.026;2023-04-24T04:55:18;9.90;99.90
21207;DHT22;10761;48.532;8.026;2023-04-24T04:57:45;9.90;99.90
21207;DHT22;10761;48.532;8.026;2023-04-24T05:00:11;10.00;99.90
21207;DHT22;10761;48.532;8.026;2023-04-24T05:02:38;10.00;99.90
21207;DHT22;10761;48.532;8.026;2023-04-24T05:05:04;10.00;99.90
21207;DHT22;10761;48.532;8.026;2023-04-24T05:07:31;10.00;99.90
21207;DHT22;10761;48.532;8.026;2023-04-24T05:09:56;10.00;99.90
21207;DHT22;10761;48.532;8.026;2023-04-24T05:12:22;10.00;99.90
21207;DHT22;10761;48.532;8.026;2023-04-24T05:14:47;10.00;99.90
21207;DHT22;10761;48.532;8.026;2023-04-24T05:17:13;10.00;99.90
21207;DHT22;10761;48.532;8.026;2023-04-24T05:19:38;10.00;99.90
21207;DHT22;10761;48.532;8.026;2023-04-24T05:22:04;10.00;99.90
21207;DHT22;10761;48.532;8.026;2023-04-24T05:24:35;10.10;99.90
21207;DHT22;10761;48.532;8.026;2023-04-24T05:27:04;10.00;99.90
21207;DHT22;10761;48.532;8.026;2023-04-24T05:29:31;10.00;99.90
21207;DHT22;10761;48.532;8.026;2023-04-24T05:31:57;10.00;99.90
21207;DHT22;10761;48.532;8.026;2023-04-24T05:34:23;10.00;99.90
21207;DHT22;10761;48.532;8.026;2023-04-24T05:36:49;10.00;83.60
21207;DHT22;10761;48.532;8.026;2023-04-24T05:39:16;9.90;5.60
21207;DHT22;10761;48.532;8.026;2023-04-24T05:41:42;9.90;1.00
21207;DHT22;10761;48.532;8.026;2023-04-24T05:44:07;9.80;1.00
21207;DHT22;10761;48.532;8.026;2023-04-24T05:46:33;9.80;1.00
21207;DHT22;10761;48.532;8.026;2023-04-24T05:48:59;9.80;24.20
21207;DHT22;10761;48.532;8.026;2023-04-24T05:51:24;9.70;99.90
21207;DHT22;10761;48.532;8.026;2023-04-24T05:53:51;9.60;38.90
21207;DHT22;10761;48.532;8.026;2023-04-24T05:56:17;9.50;99.90
21207;DHT22;10761;48.532;8.026;2023-04-24T05:58:42;9.50;99.90
21207;DHT22;10761;48.532;8.026;2023-04-24T06:01:08;9.40;99.90
21207;DHT22;10761;48.532;8.026;2023-04-24T06:03:34;9.40;82.10
21207;DHT22;10761;48.532;8.026;2023-04-24T06:05:59;9.30;65.70
21207;DHT22;10761;48.532;8.026;2023-04-24T06:08:25;9.30;99.90
21207;DHT22;10761;48.532;8.026;2023-04-24T06:10:51;9.20;99.90
21207;DHT22;10761;48.532;8.026;2023-04-24T06:13:16;9.30;99.90
21207;DHT22;10761;48.532;8.026;2023-04-24T06:15:43;9.30;99.90
21207;DHT22;10761;48.532;8.026;2023-04-24T06:18:08;9.40;99.90
21207;DHT22;10761;48.532;8.026;2023-04-24T06:20:35;9.50;99.90
21207;DHT22;10761;48.532;8.026;2023-04-24T06:23:01;9.50;99.90
21207;DHT22;10761;48.532;8.026;2023-04-24T06:25:28;9.60;99.90
21207;DHT22;10761;48.532;8.026;2023-04-24T06:27:54;9.70;99.90
21207;DHT22;10761;48.532;8.026;2023-04-24T06:30:20;9.70;99.90
21207;DHT22;10761;48.532;8.026;2023-04-24T06:32:46;9.70;98.60
21207;DHT22;10761;48.532;8.026;2023-04-24T06:35:11;9.70;21.60
21207;DHT22;10761;48.532;8.026;2023-04-24T06:37:39;9.60;1.00
21207;DHT22;10761;48.532;8.026;2023-04-24T06:40:05;9.60;1.00
21207;DHT22;10761;48.532;8.026;2023-04-24T06:42:31;9.60;1.00
21207;DHT22;10761;48.532;8.026;2023-04-24T06:44:57;9.60;1.00
21207;DHT22;10761;48.532;8.026;2023-04-24T06:47:22;9.60;1.00
21207;DHT22;10761;48.532;8.026;2023-04-24T06:49:50;9.60;1.00
21207;DHT22;10761;48.532;8.026;2023-04-24T06:52:19;9.60;1.00
21207;DHT22;10761;48.532;8.026;2023-04-24T06:54:45;9.50;1.00
21207;DHT22;10761;48.532;8.026;2023-04-24T06:57:11;9.60;1.00
21207;DHT22;10761;48.532;8.026;2023-04-24T06:59:37;9.60;1.00
21207;DHT22;10761;48.532;8.026;2023-04-24T07:02:03;9.70;14.80
21207;DHT22;10761;48.532;8.026;2023-04-24T07:04:29;9.70;1.00
21207;DHT22;10761;48.532;8.026;2023-04-24T07:06:55;9.80;57.00
21207;DHT22;10761;48.532;8.026;2023-04-24T07:09:22;10.10;1.00
21207;DHT22;10761;48.532;8.026;2023-04-24T07:11:49;10.30;1.00
21207;DHT22;10761;48.532;8.026;2023-04-24T07:14:15;10.70;1.00
21207;DHT22;10761;48.532;8.026;2023-04-24T07:16:41;10.80;1.00
21207;DHT22;10761;48.532;8.026;2023-04-24T07:19:07;10.90;1.30
21207;DHT22;10761;48.532;8.026;2023-04-24T07:21:32;11.00;99.90
21207;DHT22;10761;48.532;8.026;2023-04-24T07:23:58;11.10;1.00
21207;DHT22;10761;48.532;8.026;2023-04-24T07:26:25;11.10;1.00
21207;DHT22;10761;48.532;8.026;2023-04-24T07:28:51;10.90;1.00
21207;DHT22;10761;48.532;8.026;2023-04-24T07:31:17;10.80;25.90
21207;DHT22;10761;48.532;8.026;2023-04-24T07:33:43;10.70;1.00
21207;DHT22;10761;48.532;8.026;2023-04-24T07:36:08;10.60;1.00
21207;DHT22;10761;48.532;8.026;2023-04-24T07:38:41;10.60;99.90
21207;DHT22;10761;48.532;8.026;2023-04-24T07:41:06;10.50;1.00
21207;DHT22;10761;48.532;8.026;2023-04-24T07:43:32;10.60;1.00
21207;DHT22;10761;48.532;8.026;2023-04-24T07:45:57;10.60;99.90
21207;DHT22;10761;48.532;8.026;2023-04-24T07:48:23;10.60;26.60
21207;DHT22;10761;48.532;8.026;2023-04-24T07:50:51;10.60;99.90
21207;DHT22;10761;48.532;8.026;2023-04-24T07:53:17;10.80;1.00
21207;DHT22;10761;48.532;8.026;2023-04-24T07:55:42;11.20;99.90
21207;DHT22;10761;48.532;8.026;2023-04-24T07:58:08;11.00;53.00
21207;DHT22;10761;48.532;8.026;2023-04-24T08:00:34;10.90;1.00
21207;DHT22;10761;48.532;8.026;2023-04-24T08:03:00;10.80;15.30
21207;DHT22;10761;48.532;8.026;2023-04-24T08:05:25;10.70;25.90
21207;DHT22;10761;48.532;8.026;2023-04-24T08:07:52;10.60;72.80
21207;DHT22;10761;48.532;8.026;2023-04-24T08:10:18;10.70;25.00
21207;DHT22;10761;48.532;8.026;2023-04-24T08:12:44;11.10;34.20
21207;DHT22;10761;48.532;8.026;2023-04-24T08:15:10;11.60;1.00
21207;DHT22;10761;48.532;8.026;2023-04-24T08:17:36;11.80;1.00
21207;DHT22;10761;48.532;8.026;2023-04-24T08:20:05;11.90;1.00
21207;DHT22;10761;48.532;8.026;2023-04-24T08:22:35;11.60;1.00
21207;DHT22;10761;48.532;8.026;2023-04-24T08:25:01;11.30;1.00
21207;DHT22;10761;48.532;8.026;2023-04-24T08:27:26;11.20;1.00
21207;DHT22;10761;48.532;8.026;2023-04-24T08:29:57;11.00;1.00
21207;DHT22;10761;48.532;8.026;2023-04-24T08:32:23;10.90;1.00
21207;DHT22;10761;48.532;8.026;2023-04-24T08:34:48;10.80;1.00
21207;DHT22;10761;48.532;8.026;2023-04-24T08:37:14;10.70;1.00
21207;DHT22;10761;48.532;8.026;2023-04-24T08:39:40;10.70;1.00
21207;DHT22;10761;48.532;8.026;2023-04-24T08:42:05;10.70;1.00
21207;DHT22;10761;48.532;8.026;2023-04-24T08:44:34;10.60;1.00
21207;DHT22;10761;48.532;8.026;2023-04-24T08:47:01;10.60;1.00
21207;DHT22;10761;48.532;8.026;2023-04-24T08:49:28;10.60;1.00
21207;DHT22;10761;48.532;8.026;2023-04-24T08:51:54;10.60;1.00
21207;DHT22;10761;48.532;8.026;2023-04-24T08:54:21;10.60;1.00
21207;DHT22;10761;48.532;8.026;2023-04-24T08:56:48;10.50;1.00
21207;DHT22;10761;48.532;8.026;2023-04-24T08:59:15;10.50;1.00
21207;DHT22;10761;48.532;8.026;2023-04-24T09:01:41;10.50;1.00
21207;DHT22;10761;48.532;8.026;2023-04-24T09:04:08;10.50;1.00
21207;DHT22;10761;48.532;8.026;2023-04-24T09:06:38;10.40;1.00
21207;DHT22;10761;48.532;8.026;2023-04-24T09:09:04;10.40;1.00
21207;DHT22;10761;48.532;8.026;2023-04-24T09:11:31;10.40;1.00
21207;DHT22;10761;48.532;8.026;2023-04-24T09:14:00;10.40;1.00
21207;DHT22;10761;48.532;8.026;2023-04-24T09:16:26;10.40;1.00
21207;DHT22;10761;48.532;8.026;2023-04-24T09:18:53;10.40;1.00
21207;DHT22;10761;48.532;8.026;2023-04-24T09:21:20;10.40;48.60
21207;DHT22;10761;48.532;8.026;2023-04-24T09:23:46;10.30;14.40
21207;DHT22;10761;48.532;8.026;2023-04-24T09:26:12;10.30;32.60
21207;DHT22;10761;48.532;8.026;2023-04-24T09:28:41;10.30;99.90
21207;DHT22;10761;48.532;8.026;2023-04-24T09:31:18;10.20;99.90
21207;DHT22;10761;48.532;8.026;2023-04-24T09:33:58;10.20;99.90
21207;DHT22;10761;48.532;8.026;2023-04-24T09:36:34;10.10;99.90
21207;DHT22;10761;48.532;8.026;2023-04-24T09:39:03;10.20;99.90
21207;DHT22;10761;48.532;8.026;2023-04-24T09:41:32;10.30;99.90
21207;DHT22;10761;48.532;8.026;2023-04-24T09:44:14;10.40;99.90
21207;DHT22;10761;48.532;8.026;2023-04-24T09:46:41;10.60;99.90
21207;DHT22;10761;48.532;8.026;2023-04-24T09:49:09;10.70;99.90
21207;DHT22;10761;48.532;8.026;2023-04-24T09:51:37;10.70;99.90
21207;DHT22;10761;48.532;8.026;2023-04-24T09:54:04;10.70;99.90
21207;DHT22;10761;48.532;8.026;2023-04-24T09:56:33;10.60;99.90
21207;DHT22;10761;48.532;8.026;2023-04-24T09:59:05;10.60;99.90
21207;DHT22;10761;48.532;8.026;2023-04-24T10:01:32;10.50;99.90
21207;DHT22;10761;48.532;8.026;2023-04-24T10:03:58;10.50;99.90
21207;DHT22;10761;48.532;8.026;2023-04-24T10:06:33;10.50;99.90
21207;DHT22;10761;48.532;8.026;2023-04-24T10:08:59;10.40;99.90
21207;DHT22;10761;48.532;8.026;2023-04-24T10:11:28;10.50;1.00
21207;DHT22;10761;48.532;8.026;2023-04-24T10:13:55;10.40;1.00
21207;DHT22;10761;48.532;8.026;2023-04-24T10:16:23;10.40;1.00
21207;DHT22;10761;48.532;8.026;2023-04-24T10:18:49;10.40;1.00
21207;DHT22;10761;48.532;8.026;2023-04-24T10:21:16;10.40;1.00
21207;DHT22;10761;48.532;8.026;2023-04-24T10:23:42;10.50;1.00
21207;DHT22;10761;48.532;8.026;2023-04-24T10:26:12;10.60;1.00
21207;DHT22;10761;48.532;8.026;2023-04-24T10:28:46;10.60;1.00
21207;DHT22;10761;48.532;8.026;2023-04-24T10:31:13;10.60;1.00
21207;DHT22;10761;48.532;8.026;2023-04-24T10:33:43;10.70;1.00
21207;DHT22;10761;48.532;8.026;2023-04-24T10:36:12;10.80;1.00
21207;DHT22;10761;48.532;8.026;2023-04-24T10:38:41;10.90;1.00
21207;DHT22;10761;48.532;8.026;2023-04-24T10:41:08;11.10;1.00
21207;DHT22;10761;48.532;8.026;2023-04-24T10:43:35;11.20;1.00
21207;DHT22;10761;48.532;8.026;2023-04-24T10:46:05;11.30;1.00
21207;DHT22;10761;48.532;8.026;2023-04-24T10:48:32;11.30;1.00
21207;DHT22;10761;48.532;8.026;2023-04-24T10:50:57;11.40;1.00
21207;DHT22;10761;48.532;8.026;2023-04-24T10:53:25;11.30;99.90
21207;DHT22;10761;48.532;8.026;2023-04-24T10:56:05;11.30;1.00
21207;DHT22;10761;48.532;8.026;2023-04-24T10:58:41;11.20;99.90
21207;DHT22;10761;48.532;8.026;2023-04-24T11:01:08;10.90;99.90
21207;DHT22;10761;48.532;8.026;2023-04-24T11:03:35;10.80;1.00
21207;DHT22;10761;48.532;8.026;2023-04-24T11:06:05;10.70;1.00
21207;DHT22;10761;48.532;8.026;2023-04-24T11:11:12;10.20;1.00
21207;DHT22;10761;48.532;8.026;2023-04-24T11:21:42;10.40;1.00
21207;DHT22;10761;48.532;8.026;2023-04-24T11:27:17;10.80;1.00
21207;DHT22;10761;48.532;8.026;2023-04-24T11:32:41;11.20;1.00
21207;DHT22;10761;48.532;8.026;2023-04-24T11:35:16;11.30;1.00
21207;DHT22;10761;48.532;8.026;2023-04-24T11:37:43;11.50;1.00
21207;DHT22;10761;48.532;8.026;2023-04-24T11:40:12;11.70;99.90
21207;DHT22;10761;48.532;8.026;2023-04-24T11:42:44;11.80;99.90
21207;DHT22;10761;48.532;8.026;2023-04-24T11:45:18;11.80;99.90
21207;DHT22;10761;48.532;8.026;2023-04-24T11:47:44;11.70;1.00
21207;DHT22;10761;48.532;8.026;2023-04-24T11:50:15;11.80;99.90
21207;DHT22;10761;48.532;8.026;2023-04-24T11:52:44;11.70;99.90
21207;DHT22;10761;48.532;8.026;2023-04-24T11:57:52;11.50;99.90
21207;DHT22;10761;48.532;8.026;2023-04-24T12:00:27;11.50;1.00
21207;DHT22;10761;48.532;8.026;2023-04-24T12:03:07;11.30;1.00
21207;DHT22;10761;48.532;8.026;2023-04-24T12:05:33;11.10;1.00
21207;DHT22;10761;48.532;8.026;2023-04-24T12:08:00;11.10;1.00
21207;DHT22;10761;48.532;8.026;2023-04-24T12:10:28;11.10;1.00
21207;DHT22;10761;48.532;8.026;2023-04-24T12:12:56;11.10;1.00
21207;DHT22;10761;48.532;8.026;2023-04-24T12:15:22;11.20;1.00
21207;DHT22;10761;48.532;8.026;2023-04-24T12:17:49;11.20;1.00
21207;DHT22;10761;48.532;8.026;2023-04-24T12:20:15;11.20;1.00
21207;DHT22;10761;48.532;8.026;2023-04-24T12:25:15;11.00;99.90
21207;DHT22;10761;48.532;8.026;2023-04-24T12:27:41;11.00;1.00
21207;DHT22;10761;48.532;8.026;2023-04-24T12:30:13;11.00;1.00
21207;DHT22;10761;48.532;8.026;2023-04-24T12:32:44;11.00;99.90
21207;DHT22;10761;48.532;8.026;2023-04-24T12:35:10;11.10;1.00
21207;DHT22;10761;48.532;8.026;2023-04-24T12:37:36;11.20;99.90
21207;DHT22;10761;48.532;8.026;2023-04-24T12:42:34;11.30;1.00
21207;DHT22;10761;48.532;8.026;2023-04-24T12:45:07;11.20;1.00
21207;DHT22;10761;48.532;8.026;2023-04-24T12:47:34;11.20;1.00
21207;DHT22;10761;48.532;8.026;2023-04-24T12:50:00;11.20;99.90
21207;DHT22;10761;48.532;8.026;2023-04-24T12:52:27;11.20;1.00
21207;DHT22;10761;48.532;8.026;2023-04-24T12:54:55;11.20;1.00
21207;DHT22;10761;48.532;8.026;2023-04-24T12:57:22;11.20;1.00
21207;DHT22;10761;48.532;8.026;2023-04-24T12:59:47;11.20;1.00
21207;DHT22;10761;48.532;8.026;2023-04-24T13:02:13;11.10;1.00
21207;DHT22;10761;48.532;8.026;2023-04-24T13:04:39;11.10;1.00
21207;DHT22;10761;48.532;8.026;2023-04-24T13:07:05;11.30;1.00
21207;DHT22;10761;48.532;8.026;2023-04-24T13:09:31;11.30;99.90
21207;DHT22;10761;48.532;8.026;2023-04-24T13:11:56;11.30;99.90
21207;DHT22;10761;48.532;8.026;2023-04-24T13:14:22;11.20;99.90
21207;DHT22;10761;48.532;8.026;2023-04-24T13:16:48;11.30;99.90
21207;DHT22;10761;48.532;8.026;2023-04-24T13:19:14;11.20;99.90
21207;DHT22;10761;48.532;8.026;2023-04-24T13:21:40;11.20;99.90
21207;DHT22;10761;48.532;8.026;2023-04-24T13:24:06;11.20;99.90
21207;DHT22;10761;48.532;8.026;2023-04-24T13:26:33;11.20;1.00
21207;DHT22;10761;48.532;8.026;2023-04-24T13:28:58;11.30;1.00
21207;DHT22;10761;48.532;8.026;2023-04-24T13:31:24;11.40;1.00
21207;DHT22;10761;48.532;8.026;2023-04-24T13:33:49;11.50;1.00
21207;DHT22;10761;48.532;8.026;2023-04-24T13:36:15;11.50;99.90
21207;DHT22;10761;48.532;8.026;2023-04-24T13:38:43;11.50;99.90
21207;DHT22;10761;48.532;8.026;2023-04-24T13:41:09;11.60;99.90
21207;DHT22;10761;48.532;8.026;2023-04-24T13:43:35;11.50;99.90
21207;DHT22;10761;48.532;8.026;2023-04-24T13:46:01;11.60;99.90
21207;DHT22;10761;48.532;8.026;2023-04-24T13:48:28;11.60;99.90
21207;DHT22;10761;48.532;8.026;2023-04-24T13:50:54;11.50;99.90
21207;DHT22;10761;48.532;8.026;2023-04-24T13:53:20;11.50;99.90
21207;DHT22;10761;48.532;8.026;2023-04-24T13:55:45;11.60;99.90
21207;DHT22;10761;48.532;8.026;2023-04-24T13:58:11;11.60;99.90
21207;DHT22;10761;48.532;8.026;2023-04-24T14:00:36;11.70;99.90
21207;DHT22;10761;48.532;8.026;2023-04-24T14:03:02;11.90;99.90
21207;DHT22;10761;48.532;8.026;2023-04-24T14:05:28;11.90;99.90
21207;DHT22;10761;48.532;8.026;2023-04-24T14:07:53;12.00;99.90
21207;DHT22;10761;48.532;8.026;2023-04-24T14:10:19;11.80;93.00
21207;DHT22;10761;48.532;8.026;2023-04-24T14:12:45;11.70;84.30
21207;DHT22;10761;48.532;8.026;2023-04-24T14:15:10;11.70;22.80
21207;DHT22;10761;48.532;8.026;2023-04-24T14:17:37;11.70;74.20
21207;DHT22;10761;48.532;8.026;2023-04-24T14:20:03;11.90;69.30
21207;DHT22;10761;48.532;8.026;2023-04-24T14:22:29;12.00;46.60
21207;DHT22;10761;48.532;8.026;2023-04-24T14:24:55;12.10;1.60
21207;DHT22;10761;48.532;8.026;2023-04-24T14:27:21;12.40;1.00
21207;DHT22;10761;48.532;8.026;2023-04-24T14:29:46;12.70;1.00
21207;DHT22;10761;48.532;8.026;2023-04-24T14:32:12;13.10;1.00
21207;DHT22;10761;48.532;8.026;2023-04-24T14:34:40;13.30;1.00
21207;DHT22;10761;48.532;8.026;2023-04-24T14:37:07;13.60;1.00
21207;DHT22;10761;48.532;8.026;2023-04-24T14:39:32;13.70;1.00
21207;DHT22;10761;48.532;8.026;2023-04-24T14:41:58;13.80;1.00
21207;DHT22;10761;48.532;8.026;2023-04-24T14:44:24;13.80;1.00
21207;DHT22;10761;48.532;8.026;2023-04-24T14:46:50;13.80;1.00
21207;DHT22;10761;48.532;8.026;2023-04-24T14:49:15;14.00;1.00
21207;DHT22;10761;48.532;8.026;2023-04-24T14:51:41;13.90;1.00
21207;DHT22;10761;48.532;8.026;2023-04-24T14:54:07;13.90;1.00
21207;DHT22;10761;48.532;8.026;2023-04-24T14:56:33;13.70;1.00
21207;DHT22;10761;48.532;8.026;2023-04-24T14:58:59;13.50;1.00
21207;DHT22;10761;48.532;8.026;2023-04-24T15:01:24;13.40;1.00
21207;DHT22;10761;48.532;8.026;2023-04-24T15:03:50;13.30;1.00
21207;DHT22;10761;48.532;8.026;2023-04-24T15:06:16;13.10;1.00
21207;DHT22;10761;48.532;8.026;2023-04-24T15:08:41;12.90;1.00
21207;DHT22;10761;48.532;8.026;2023-04-24T15:11:09;12.90;1.00
21207;DHT22;10761;48.532;8.026;2023-04-24T15:13:35;12.90;1.00
21207;DHT22;10761;48.532;8.026;2023-04-24T15:16:00;12.90;1.00
21207;DHT22;10761;48.532;8.026;2023-04-24T15:18:27;13.00;1.00
21207;DHT22;10761;48.532;8.026;2023-04-24T15:20:54;13.00;1.00
21207;DHT22;10761;48.532;8.026;2023-04-24T15:23:20;13.00;1.00
21207;DHT22;10761;48.532;8.026;2023-04-24T15:25:45;13.10;1.00
21207;DHT22;10761;48.532;8.026;2023-04-24T15:28:11;13.10;1.00
21207;DHT22;10761;48.532;8.026;2023-04-24T15:30:37;13.30;1.00
21207;DHT22;10761;48.532;8.026;2023-04-24T15:33:03;13.60;1.00
21207;DHT22;10761;48.532;8.026;2023-04-24T15:35:29;13.90;1.00
21207;DHT22;10761;48.532;8.026;2023-04-24T15:37:54;14.30;1.00
21207;DHT22;10761;48.532;8.026;2023-04-24T15:40:20;14.60;1.00
21207;DHT22;10761;48.532;8.026;2023-04-24T15:42:46;14.70;1.00
21207;DHT22;10761;48.532;8.026;2023-04-24T15:45:11;14.80;1.00
21207;DHT22;10761;48.532;8.026;2023-04-24T15:47:38;14.80;1.00
21207;DHT22;10761;48.532;8.026;2023-04-24T15:50:04;14.80;1.00
21207;DHT22;10761;48.532;8.026;2023-04-24T15:52:30;14.80;1.00
21207;DHT22;10761;48.532;8.026;2023-04-24T15:54:56;14.60;1.00
21207;DHT22;10761;48.532;8.026;2023-04-24T15:57:22;14.50;1.00
21207;DHT22;10761;48.532;8.026;2023-04-24T15:59:47;14.40;1.00